sensor_id;sensor_type;location;lat;lon;timestamp;P1;durP1;ratioP1;P2;durP2;ratioP2
64950;SDS011;51482;47.014;7.652;2022-08-19T00:00:08;10.45;;;8.43;;
64950;SDS011;51482;47.014;7.652;2022-08-19T00:02:36;9.40;;;7.90;;
64950;SDS011;51482;47.014;7.652;2022-08-19T00:05:02;8.10;;;7.30;;
64950;SDS011;51482;47.014;7.652;2022-08-19T00:07:28;8.15;;;7.35;;
64950;SDS011;51482;47.014;7.652;2022-08-19T00:09:54;9.50;;;7.78;;
64950;SDS011;51482;47.014;7.652;2022-08-19T00:12:19;10.80;;;7.70;;
64950;SDS011;51482;47.014;7.652;2022-08-19T00:14:45;9.20;;;8.30;;
64950;SDS011;51482;47.014;7.652;2022-08-19T00:17:11;9.57;;;7.95;;
64950;SDS011;51482;47.014;7.652;2022-08-19T00:19:38;8.82;;;7.93;;
64950;SDS011;51482;47.014;7.652;2022-08-19T00:22:04;9.00;;;8.10;;
64950;SDS011;51482;47.014;7.652;2022-08-19T00:24:30;8.88;;;7.97;;
64950;SDS011;51482;47.014;7.652;2022-08-19T00:26:57;8.13;;;7.32;;
64950;SDS011;51482;47.014;7.652;2022-08-19T00:29:24;7.82;;;7.00;;
64950;SDS011;51482;47.014;7.652;2022-08-19T00:31:50;8.18;;;7.38;;
64950;SDS011;51482;47.014;7.652;2022-08-19T00:34:19;8.20;;;6.78;;
64950;SDS011;51482;47.014;7.652;2022-08-19T00:36:46;7.85;;;7.25;;
64950;SDS011;51482;47.014;7.652;2022-08-19T00:39:13;9.93;;;7.40;;
64950;SDS011;51482;47.014;7.652;2022-08-19T00:41:43;8.73;;;7.82;;
64950;SDS011;51482;47.014;7.652;2022-08-19T00:44:14;7.60;;;6.80;;
64950;SDS011;51482;47.014;7.652;2022-08-19T00:46:46;10.75;;;7.53;;
64950;SDS011;51482;47.014;7.652;2022-08-19T00:49:18;7.30;;;6.20;;
64950;SDS011;51482;47.014;7.652;2022-08-19T00:51:50;7.95;;;7.15;;
64950;SDS011;51482;47.014;7.652;2022-08-19T00:54:20;8.45;;;7.65;;
64950;SDS011;51482;47.014;7.652;2022-08-19T00:56:46;7.85;;;7.05;;
64950;SDS011;51482;47.014;7.652;2022-08-19T00:59:13;7.85;;;7.15;;
64950;SDS011;51482;47.014;7.652;2022-08-19T01:01:41;7.68;;;6.97;;
64950;SDS011;51482;47.014;7.652;2022-08-19T01:04:09;7.65;;;6.63;;
64950;SDS011;51482;47.014;7.652;2022-08-19T01:06:35;6.97;;;6.28;;
64950;SDS011;51482;47.014;7.652;2022-08-19T01:09:02;7.22;;;6.53;;
64950;SDS011;51482;47.014;7.652;2022-08-19T01:11:30;7.82;;;7.07;;
64950;SDS011;51482;47.014;7.652;2022-08-19T01:13:58;7.30;;;6.65;;
64950;SDS011;51482;47.014;7.652;2022-08-19T01:16:25;8.93;;;7.25;;
64950;SDS011;51482;47.014;7.652;2022-08-19T01:18:53;8.00;;;7.20;;
64950;SDS011;51482;47.014;7.652;2022-08-19T01:23:44;8.63;;;7.28;;
64950;SDS011;51482;47.014;7.652;2022-08-19T01:26:14;9.25;;;7.20;;
64950;SDS011;51482;47.014;7.652;2022-08-19T01:28:42;8.57;;;7.72;;
64950;SDS011;51482;47.014;7.652;2022-08-19T01:31:11;7.70;;;6.90;;
64950;SDS011;51482;47.014;7.652;2022-08-19T01:33:43;8.35;;;7.25;;
64950;SDS011;51482;47.014;7.652;2022-08-19T01:36:11;9.00;;;6.80;;
64950;SDS011;51482;47.014;7.652;2022-08-19T01:38:47;7.93;;;7.13;;
64950;SDS011;51482;47.014;7.652;2022-08-19T01:41:14;8.82;;;7.75;;
64950;SDS011;51482;47.014;7.652;2022-08-19T01:43:42;8.13;;;7.38;;
64950;SDS011;51482;47.014;7.652;2022-08-19T01:46:07;8.38;;;7.57;;
64950;SDS011;51482;47.014;7.652;2022-08-19T01:48:35;8.07;;;7.28;;
64950;SDS011;51482;47.014;7.652;2022-08-19T01:51:03;7.88;;;7.10;;
64950;SDS011;51482;47.014;7.652;2022-08-19T01:53:29;8.20;;;7.20;;
64950;SDS011;51482;47.014;7.652;2022-08-19T01:55:55;7.07;;;6.43;;
64950;SDS011;51482;47.014;7.652;2022-08-19T01:58:24;8.57;;;7.28;;
64950;SDS011;51482;47.014;7.652;2022-08-19T02:00:55;7.70;;;6.93;;
64950;SDS011;51482;47.014;7.652;2022-08-19T02:03:22;7.32;;;6.63;;
64950;SDS011;51482;47.014;7.652;2022-08-19T02:05:47;9.63;;;7.45;;
64950;SDS011;51482;47.014;7.652;2022-08-19T02:08:18;7.45;;;6.40;;
64950;SDS011;51482;47.014;7.652;2022-08-19T02:10:43;7.63;;;6.93;;
64950;SDS011;51482;47.014;7.652;2022-08-19T02:13:09;9.38;;;7.00;;
64950;SDS011;51482;47.014;7.652;2022-08-19T02:15:36;8.00;;;6.85;;
64950;SDS011;51482;47.014;7.652;2022-08-19T02:18:02;8.20;;;6.97;;
64950;SDS011;51482;47.014;7.652;2022-08-19T02:20:27;8.27;;;7.40;;
64950;SDS011;51482;47.014;7.652;2022-08-19T02:22:53;8.05;;;7.00;;
64950;SDS011;51482;47.014;7.652;2022-08-19T02:25:19;7.28;;;6.57;;
64950;SDS011;51482;47.014;7.652;2022-08-19T02:27:44;7.07;;;6.47;;
64950;SDS011;51482;47.014;7.652;2022-08-19T02:30:11;7.75;;;6.90;;
64950;SDS011;51482;47.014;7.652;2022-08-19T02:32:38;6.97;;;6.28;;
64950;SDS011;51482;47.014;7.652;2022-08-19T02:35:04;9.75;;;7.15;;
64950;SDS011;51482;47.014;7.652;2022-08-19T02:37:30;7.50;;;6.72;;
64950;SDS011;51482;47.014;7.652;2022-08-19T02:40:14;7.25;;;6.55;;
64950;SDS011;51482;47.014;7.652;2022-08-19T02:42:42;8.00;;;7.18;;
64950;SDS011;51482;47.014;7.652;2022-08-19T02:45:08;7.53;;;6.82;;
64950;SDS011;51482;47.014;7.652;2022-08-19T02:47:34;7.65;;;6.93;;
64950;SDS011;51482;47.014;7.652;2022-08-19T02:50:00;8.00;;;7.30;;
64950;SDS011;51482;47.014;7.652;2022-08-19T02:52:27;7.35;;;6.63;;
64950;SDS011;51482;47.014;7.652;2022-08-19T02:54:53;7.70;;;6.88;;
64950;SDS011;51482;47.014;7.652;2022-08-19T02:57:21;8.18;;;7.18;;
64950;SDS011;51482;47.014;7.652;2022-08-19T02:59:47;7.85;;;7.05;;
64950;SDS011;51482;47.014;7.652;2022-08-19T03:02:13;9.90;;;7.78;;
64950;SDS011;51482;47.014;7.652;2022-08-19T03:04:39;9.30;;;6.97;;
64950;SDS011;51482;47.014;7.652;2022-08-19T03:07:04;8.32;;;7.07;;
64950;SDS011;51482;47.014;7.652;2022-08-19T03:09:30;9.40;;;7.50;;
64950;SDS011;51482;47.014;7.652;2022-08-19T03:11:55;8.10;;;7.35;;
64950;SDS011;51482;47.014;7.652;2022-08-19T03:14:21;7.78;;;6.93;;
64950;SDS011;51482;47.014;7.652;2022-08-19T03:16:48;7.78;;;7.07;;
64950;SDS011;51482;47.014;7.652;2022-08-19T03:19:16;8.15;;;7.30;;
64950;SDS011;51482;47.014;7.652;2022-08-19T03:21:43;8.48;;;6.68;;
64950;SDS011;51482;47.014;7.652;2022-08-19T03:24:12;6.97;;;6.32;;
64950;SDS011;51482;47.014;7.652;2022-08-19T03:26:40;7.18;;;6.10;;
64950;SDS011;51482;47.014;7.652;2022-08-19T03:29:07;7.63;;;6.82;;
64950;SDS011;51482;47.014;7.652;2022-08-19T03:31:35;7.95;;;7.05;;
64950;SDS011;51482;47.014;7.652;2022-08-19T03:34:02;8.43;;;7.13;;
64950;SDS011;51482;47.014;7.652;2022-08-19T03:36:28;6.88;;;6.28;;
64950;SDS011;51482;47.014;7.652;2022-08-19T03:38:55;7.68;;;6.97;;
64950;SDS011;51482;47.014;7.652;2022-08-19T03:41:29;8.70;;;7.80;;
64950;SDS011;51482;47.014;7.652;2022-08-19T03:43:58;7.70;;;7.00;;
64950;SDS011;51482;47.014;7.652;2022-08-19T03:46:28;9.10;;;7.30;;
64950;SDS011;51482;47.014;7.652;2022-08-19T03:48:56;8.13;;;7.40;;
64950;SDS011;51482;47.014;7.652;2022-08-19T03:51:26;8.80;;;7.82;;
64950;SDS011;51482;47.014;7.652;2022-08-19T03:53:55;7.72;;;7.03;;
64950;SDS011;51482;47.014;7.652;2022-08-19T03:56:22;9.13;;;8.13;;
64950;SDS011;51482;47.014;7.652;2022-08-19T03:58:50;7.88;;;6.90;;
64950;SDS011;51482;47.014;7.652;2022-08-19T04:01:17;8.27;;;7.47;;
64950;SDS011;51482;47.014;7.652;2022-08-19T04:03:45;12.00;;;8.32;;
64950;SDS011;51482;47.014;7.652;2022-08-19T04:06:17;13.88;;;8.27;;
64950;SDS011;51482;47.014;7.652;2022-08-19T04:08:47;7.68;;;6.97;;
64950;SDS011;51482;47.014;7.652;2022-08-19T04:11:16;8.18;;;7.38;;
64950;SDS011;51482;47.014;7.652;2022-08-19T04:13:49;8.63;;;7.80;;
64950;SDS011;51482;47.014;7.652;2022-08-19T04:16:16;9.48;;;8.52;;
64950;SDS011;51482;47.014;7.652;2022-08-19T04:18:43;8.90;;;8.02;;
64950;SDS011;51482;47.014;7.652;2022-08-19T04:21:14;12.32;;;10.32;;
64950;SDS011;51482;47.014;7.652;2022-08-19T04:23:41;12.80;;;8.95;;
64950;SDS011;51482;47.014;7.652;2022-08-19T04:26:07;9.75;;;8.52;;
64950;SDS011;51482;47.014;7.652;2022-08-19T04:28:40;9.80;;;8.73;;
64950;SDS011;51482;47.014;7.652;2022-08-19T04:31:11;9.80;;;8.80;;
64950;SDS011;51482;47.014;7.652;2022-08-19T04:33:38;9.43;;;8.13;;
64950;SDS011;51482;47.014;7.652;2022-08-19T04:36:04;8.52;;;7.72;;
64950;SDS011;51482;47.014;7.652;2022-08-19T04:38:30;8.63;;;7.78;;
64950;SDS011;51482;47.014;7.652;2022-08-19T04:40:55;9.07;;;7.88;;
64950;SDS011;51482;47.014;7.652;2022-08-19T04:43:40;8.50;;;7.53;;
64950;SDS011;51482;47.014;7.652;2022-08-19T04:46:09;8.25;;;7.43;;
64950;SDS011;51482;47.014;7.652;2022-08-19T04:48:36;10.95;;;7.93;;
64950;SDS011;51482;47.014;7.652;2022-08-19T04:51:05;8.98;;;8.07;;
64950;SDS011;51482;47.014;7.652;2022-08-19T04:53:33;8.25;;;7.45;;
64950;SDS011;51482;47.014;7.652;2022-08-19T04:56:03;9.77;;;8.10;;
64950;SDS011;51482;47.014;7.652;2022-08-19T04:58:32;9.50;;;7.72;;
64950;SDS011;51482;47.014;7.652;2022-08-19T05:00:58;8.95;;;7.47;;
64950;SDS011;51482;47.014;7.652;2022-08-19T05:03:25;10.00;;;8.23;;
64950;SDS011;51482;47.014;7.652;2022-08-19T05:05:51;9.10;;;8.10;;
64950;SDS011;51482;47.014;7.652;2022-08-19T05:08:18;7.97;;;7.28;;
64950;SDS011;51482;47.014;7.652;2022-08-19T05:10:46;9.40;;;7.72;;
64950;SDS011;51482;47.014;7.652;2022-08-19T05:13:13;8.38;;;7.57;;
64950;SDS011;51482;47.014;7.652;2022-08-19T05:15:41;8.82;;;7.75;;
64950;SDS011;51482;47.014;7.652;2022-08-19T05:18:07;8.45;;;7.55;;
64950;SDS011;51482;47.014;7.652;2022-08-19T05:20:51;8.02;;;7.25;;
64950;SDS011;51482;47.014;7.652;2022-08-19T05:23:36;8.80;;;7.55;;
64950;SDS011;51482;47.014;7.652;2022-08-19T05:26:02;8.68;;;7.18;;
64950;SDS011;51482;47.014;7.652;2022-08-19T05:28:27;7.88;;;7.07;;
64950;SDS011;51482;47.014;7.652;2022-08-19T05:30:53;7.93;;;6.85;;
64950;SDS011;51482;47.014;7.652;2022-08-19T05:33:20;8.00;;;7.20;;
64950;SDS011;51482;47.014;7.652;2022-08-19T05:35:47;7.68;;;7.00;;
64950;SDS011;51482;47.014;7.652;2022-08-19T05:38:14;9.80;;;7.40;;
64950;SDS011;51482;47.014;7.652;2022-08-19T05:40:40;8.65;;;7.75;;
64950;SDS011;51482;47.014;7.652;2022-08-19T05:43:07;7.72;;;7.03;;
64950;SDS011;51482;47.014;7.652;2022-08-19T05:45:37;7.10;;;6.47;;
64950;SDS011;51482;47.014;7.652;2022-08-19T05:48:04;7.82;;;7.03;;
64950;SDS011;51482;47.014;7.652;2022-08-19T05:50:30;7.75;;;7.05;;
64950;SDS011;51482;47.014;7.652;2022-08-19T05:52:56;6.13;;;5.60;;
64950;SDS011;51482;47.014;7.652;2022-08-19T05:55:21;6.65;;;5.93;;
64950;SDS011;51482;47.014;7.652;2022-08-19T05:57:48;7.13;;;6.50;;
64950;SDS011;51482;47.014;7.652;2022-08-19T06:00:14;6.30;;;5.70;;
64950;SDS011;51482;47.014;7.652;2022-08-19T06:02:40;6.07;;;5.35;;
64950;SDS011;51482;47.014;7.652;2022-08-19T06:05:06;7.88;;;6.75;;
64950;SDS011;51482;47.014;7.652;2022-08-19T06:07:34;7.45;;;6.75;;
64950;SDS011;51482;47.014;7.652;2022-08-19T06:10:00;7.18;;;6.47;;
64950;SDS011;51482;47.014;7.652;2022-08-19T06:12:27;6.43;;;5.82;;
64950;SDS011;51482;47.014;7.652;2022-08-19T06:14:59;8.00;;;7.20;;
64950;SDS011;51482;47.014;7.652;2022-08-19T06:17:26;7.22;;;6.57;;
64950;SDS011;51482;47.014;7.652;2022-08-19T06:19:52;7.05;;;6.18;;
64950;SDS011;51482;47.014;7.652;2022-08-19T06:22:18;7.72;;;6.47;;
64950;SDS011;51482;47.014;7.652;2022-08-19T06:24:43;8.05;;;6.20;;
64950;SDS011;51482;47.014;7.652;2022-08-19T06:27:09;10.00;;;5.45;;
64950;SDS011;51482;47.014;7.652;2022-08-19T06:29:35;6.53;;;5.72;;
64950;SDS011;51482;47.014;7.652;2022-08-19T06:32:01;6.50;;;5.88;;
64950;SDS011;51482;47.014;7.652;2022-08-19T06:34:28;6.97;;;6.28;;
64950;SDS011;51482;47.014;7.652;2022-08-19T06:36:56;9.25;;;6.28;;
64950;SDS011;51482;47.014;7.652;2022-08-19T06:39:29;7.13;;;6.00;;
64950;SDS011;51482;47.014;7.652;2022-08-19T06:41:58;7.20;;;5.60;;
64950;SDS011;51482;47.014;7.652;2022-08-19T06:44:27;8.63;;;6.35;;
64950;SDS011;51482;47.014;7.652;2022-08-19T06:46:54;6.65;;;5.80;;
64950;SDS011;51482;47.014;7.652;2022-08-19T06:49:20;6.93;;;6.15;;
64950;SDS011;51482;47.014;7.652;2022-08-19T06:51:46;8.70;;;6.18;;
64950;SDS011;51482;47.014;7.652;2022-08-19T06:54:13;7.40;;;6.70;;
64950;SDS011;51482;47.014;7.652;2022-08-19T06:56:40;7.80;;;7.00;;
64950;SDS011;51482;47.014;7.652;2022-08-19T06:59:08;9.05;;;7.15;;
64950;SDS011;51482;47.014;7.652;2022-08-19T07:01:39;8.38;;;7.47;;
64950;SDS011;51482;47.014;7.652;2022-08-19T07:04:09;7.70;;;6.82;;
64950;SDS011;51482;47.014;7.652;2022-08-19T07:06:35;6.85;;;6.15;;
64950;SDS011;51482;47.014;7.652;2022-08-19T07:09:02;8.68;;;6.47;;
64950;SDS011;51482;47.014;7.652;2022-08-19T07:11:29;8.07;;;7.28;;
64950;SDS011;51482;47.014;7.652;2022-08-19T07:13:56;7.57;;;6.05;;
64950;SDS011;51482;47.014;7.652;2022-08-19T07:16:21;7.80;;;6.13;;
64950;SDS011;51482;47.014;7.652;2022-08-19T07:18:47;7.20;;;6.03;;
64950;SDS011;51482;47.014;7.652;2022-08-19T07:21:19;7.47;;;6.68;;
64950;SDS011;51482;47.014;7.652;2022-08-19T07:23:46;8.02;;;6.43;;
64950;SDS011;51482;47.014;7.652;2022-08-19T07:26:15;7.00;;;6.40;;
64950;SDS011;51482;47.014;7.652;2022-08-19T07:28:42;7.60;;;6.55;;
64950;SDS011;51482;47.014;7.652;2022-08-19T07:31:13;7.97;;;7.07;;
64950;SDS011;51482;47.014;7.652;2022-08-19T07:33:43;7.55;;;6.75;;
64950;SDS011;51482;47.014;7.652;2022-08-19T07:36:09;7.35;;;6.50;;
64950;SDS011;51482;47.014;7.652;2022-08-19T07:38:37;10.68;;;7.10;;
64950;SDS011;51482;47.014;7.652;2022-08-19T07:41:05;7.38;;;6.55;;
64950;SDS011;51482;47.014;7.652;2022-08-19T07:43:31;6.53;;;5.93;;
64950;SDS011;51482;47.014;7.652;2022-08-19T07:45:57;7.03;;;6.10;;
64950;SDS011;51482;47.014;7.652;2022-08-19T07:48:23;6.78;;;6.13;;
64950;SDS011;51482;47.014;7.652;2022-08-19T07:50:54;7.72;;;6.93;;
64950;SDS011;51482;47.014;7.652;2022-08-19T07:53:21;7.75;;;6.75;;
64950;SDS011;51482;47.014;7.652;2022-08-19T07:55:48;7.82;;;6.40;;
64950;SDS011;51482;47.014;7.652;2022-08-19T07:58:15;7.57;;;6.63;;
64950;SDS011;51482;47.014;7.652;2022-08-19T08:00:42;7.63;;;6.05;;
64950;SDS011;51482;47.014;7.652;2022-08-19T08:03:09;7.03;;;6.32;;
64950;SDS011;51482;47.014;7.652;2022-08-19T08:05:35;8.30;;;7.45;;
64950;SDS011;51482;47.014;7.652;2022-08-19T08:08:20;8.13;;;7.32;;
64950;SDS011;51482;47.014;7.652;2022-08-19T08:11:04;9.55;;;6.55;;
64950;SDS011;51482;47.014;7.652;2022-08-19T08:13:30;6.97;;;6.28;;
64950;SDS011;51482;47.014;7.652;2022-08-19T08:15:58;7.70;;;6.68;;
64950;SDS011;51482;47.014;7.652;2022-08-19T08:18:24;8.68;;;6.78;;
64950;SDS011;51482;47.014;7.652;2022-08-19T08:20:50;7.68;;;6.75;;
64950;SDS011;51482;47.014;7.652;2022-08-19T08:23:15;7.57;;;6.50;;
64950;SDS011;51482;47.014;7.652;2022-08-19T08:25:47;9.48;;;6.63;;
64950;SDS011;51482;47.014;7.652;2022-08-19T08:28:14;9.02;;;7.38;;
64950;SDS011;51482;47.014;7.652;2022-08-19T08:30:40;7.57;;;6.88;;
64950;SDS011;51482;47.014;7.652;2022-08-19T08:33:08;8.80;;;7.90;;
64950;SDS011;51482;47.014;7.652;2022-08-19T08:35:34;9.57;;;8.60;;
64950;SDS011;51482;47.014;7.652;2022-08-19T08:38:00;8.93;;;8.02;;
64950;SDS011;51482;47.014;7.652;2022-08-19T08:40:43;10.77;;;8.98;;
64950;SDS011;51482;47.014;7.652;2022-08-19T08:43:28;7.60;;;6.68;;
64950;SDS011;51482;47.014;7.652;2022-08-19T08:46:08;8.38;;;7.55;;
64950;SDS011;51482;47.014;7.652;2022-08-19T08:48:41;8.00;;;7.20;;
64950;SDS011;51482;47.014;7.652;2022-08-19T08:51:15;9.30;;;8.30;;
64950;SDS011;51482;47.014;7.652;2022-08-19T08:54:05;8.05;;;7.28;;
64950;SDS011;51482;47.014;7.652;2022-08-19T08:56:32;8.55;;;7.13;;
64950;SDS011;51482;47.014;7.652;2022-08-19T08:59:05;7.80;;;6.97;;
64950;SDS011;51482;47.014;7.652;2022-08-19T09:01:42;7.45;;;6.75;;
64950;SDS011;51482;47.014;7.652;2022-08-19T09:04:07;7.55;;;6.65;;
64950;SDS011;51482;47.014;7.652;2022-08-19T09:09:17;8.73;;;7.07;;
64950;SDS011;51482;47.014;7.652;2022-08-19T09:12:13;9.35;;;7.57;;
64950;SDS011;51482;47.014;7.652;2022-08-19T09:15:02;8.35;;;7.55;;
64950;SDS011;51482;47.014;7.652;2022-08-19T09:17:30;9.45;;;8.50;;
64950;SDS011;51482;47.014;7.652;2022-08-19T09:22:29;7.75;;;7.05;;
64950;SDS011;51482;47.014;7.652;2022-08-19T09:24:55;8.20;;;7.40;;
64950;SDS011;51482;47.014;7.652;2022-08-19T09:27:22;8.60;;;7.80;;
64950;SDS011;51482;47.014;7.652;2022-08-19T09:29:51;8.02;;;7.22;;
64950;SDS011;51482;47.014;7.652;2022-08-19T09:32:19;8.23;;;7.43;;
64950;SDS011;51482;47.014;7.652;2022-08-19T09:34:45;7.90;;;7.10;;
64950;SDS011;51482;47.014;7.652;2022-08-19T09:37:11;7.65;;;6.95;;
64950;SDS011;51482;47.014;7.652;2022-08-19T09:39:37;7.88;;;7.07;;
64950;SDS011;51482;47.014;7.652;2022-08-19T09:42:05;8.05;;;7.35;;
64950;SDS011;51482;47.014;7.652;2022-08-19T09:44:39;9.40;;;7.57;;
64950;SDS011;51482;47.014;7.652;2022-08-19T09:47:05;8.35;;;7.55;;
64950;SDS011;51482;47.014;7.652;2022-08-19T09:49:31;8.88;;;7.45;;
64950;SDS011;51482;47.014;7.652;2022-08-19T09:51:58;8.45;;;7.55;;
64950;SDS011;51482;47.014;7.652;2022-08-19T09:54:24;7.78;;;7.07;;
64950;SDS011;51482;47.014;7.652;2022-08-19T09:56:49;8.50;;;7.65;;
64950;SDS011;51482;47.014;7.652;2022-08-19T09:59:15;9.50;;;7.97;;
64950;SDS011;51482;47.014;7.652;2022-08-19T10:01:41;8.43;;;7.63;;
64950;SDS011;51482;47.014;7.652;2022-08-19T10:04:06;8.80;;;8.00;;
64950;SDS011;51482;47.014;7.652;2022-08-19T10:06:33;8.43;;;7.57;;
64950;SDS011;51482;47.014;7.652;2022-08-19T10:09:00;8.88;;;7.97;;
64950;SDS011;51482;47.014;7.652;2022-08-19T10:11:29;8.05;;;7.07;;
64950;SDS011;51482;47.014;7.652;2022-08-19T10:13:55;7.78;;;6.90;;
64950;SDS011;51482;47.014;7.652;2022-08-19T10:16:21;8.15;;;7.35;;
64950;SDS011;51482;47.014;7.652;2022-08-19T10:18:49;10.27;;;7.97;;
64950;SDS011;51482;47.014;7.652;2022-08-19T10:21:17;7.47;;;6.82;;
64950;SDS011;51482;47.014;7.652;2022-08-19T10:23:47;9.60;;;7.80;;
64950;SDS011;51482;47.014;7.652;2022-08-19T10:26:19;6.28;;;5.78;;
64950;SDS011;51482;47.014;7.652;2022-08-19T10:28:46;6.80;;;6.20;;
64950;SDS011;51482;47.014;7.652;2022-08-19T10:31:14;6.88;;;6.28;;
64950;SDS011;51482;47.014;7.652;2022-08-19T10:33:42;6.20;;;5.60;;
64950;SDS011;51482;47.014;7.652;2022-08-19T10:36:10;6.63;;;6.03;;
64950;SDS011;51482;47.014;7.652;2022-08-19T10:38:39;7.20;;;6.50;;
64950;SDS011;51482;47.014;7.652;2022-08-19T10:41:09;6.25;;;5.70;;
64950;SDS011;51482;47.014;7.652;2022-08-19T10:43:37;8.60;;;6.57;;
64950;SDS011;51482;47.014;7.652;2022-08-19T10:46:06;6.70;;;5.68;;
64950;SDS011;51482;47.014;7.652;2022-08-19T10:48:33;6.47;;;5.85;;
64950;SDS011;51482;47.014;7.652;2022-08-19T10:50:59;8.60;;;7.22;;
64950;SDS011;51482;47.014;7.652;2022-08-19T10:53:44;8.48;;;7.18;;
64950;SDS011;51482;47.014;7.652;2022-08-19T10:56:09;8.02;;;7.22;;
64950;SDS011;51482;47.014;7.652;2022-08-19T10:58:55;7.32;;;6.63;;
64950;SDS011;51482;47.014;7.652;2022-08-19T11:01:22;7.53;;;6.78;;
64950;SDS011;51482;47.014;7.652;2022-08-19T11:03:49;6.28;;;5.68;;
64950;SDS011;51482;47.014;7.652;2022-08-19T11:06:14;6.25;;;5.65;;
64950;SDS011;51482;47.014;7.652;2022-08-19T11:08:41;6.35;;;5.75;;
64950;SDS011;51482;47.014;7.652;2022-08-19T11:11:10;5.93;;;5.32;;
64950;SDS011;51482;47.014;7.652;2022-08-19T11:13:37;6.70;;;6.00;;
64950;SDS011;51482;47.014;7.652;2022-08-19T11:16:06;6.63;;;5.70;;
64950;SDS011;51482;47.014;7.652;2022-08-19T11:18:37;7.55;;;6.63;;
64950;SDS011;51482;47.014;7.652;2022-08-19T11:21:20;6.72;;;6.03;;
64950;SDS011;51482;47.014;7.652;2022-08-19T11:23:48;5.90;;;5.30;;
64950;SDS011;51482;47.014;7.652;2022-08-19T11:26:16;6.32;;;5.75;;
64950;SDS011;51482;47.014;7.652;2022-08-19T11:28:43;6.97;;;5.80;;
64950;SDS011;51482;47.014;7.652;2022-08-19T11:31:09;7.35;;;6.65;;
64950;SDS011;51482;47.014;7.652;2022-08-19T11:33:50;6.93;;;6.22;;
64950;SDS011;51482;47.014;7.652;2022-08-19T11:36:17;5.00;;;4.50;;
64950;SDS011;51482;47.014;7.652;2022-08-19T11:38:44;8.68;;;5.80;;
64950;SDS011;51482;47.014;7.652;2022-08-19T11:41:10;5.97;;;5.15;;
64950;SDS011;51482;47.014;7.652;2022-08-19T11:43:36;7.15;;;4.30;;
64950;SDS011;51482;47.014;7.652;2022-08-19T11:46:06;5.38;;;4.85;;
64950;SDS011;51482;47.014;7.652;2022-08-19T11:48:33;6.10;;;5.55;;
64950;SDS011;51482;47.014;7.652;2022-08-19T11:51:02;5.97;;;5.25;;
64950;SDS011;51482;47.014;7.652;2022-08-19T11:53:31;7.10;;;5.30;;
64950;SDS011;51482;47.014;7.652;2022-08-19T11:55:57;6.93;;;5.90;;
64950;SDS011;51482;47.014;7.652;2022-08-19T11:58:22;5.85;;;5.20;;
64950;SDS011;51482;47.014;7.652;2022-08-19T12:00:49;5.90;;;5.30;;
64950;SDS011;51482;47.014;7.652;2022-08-19T12:03:15;5.53;;;5.03;;
64950;SDS011;51482;47.014;7.652;2022-08-19T12:05:41;5.50;;;4.80;;
64950;SDS011;51482;47.014;7.652;2022-08-19T12:08:07;6.10;;;4.82;;
64950;SDS011;51482;47.014;7.652;2022-08-19T12:10:33;4.30;;;3.90;;
64950;SDS011;51482;47.014;7.652;2022-08-19T12:12:59;5.47;;;4.93;;
64950;SDS011;51482;47.014;7.652;2022-08-19T12:15:26;5.50;;;5.00;;
64950;SDS011;51482;47.014;7.652;2022-08-19T12:17:54;4.95;;;4.55;;
64950;SDS011;51482;47.014;7.652;2022-08-19T12:20:21;4.75;;;4.30;;
64950;SDS011;51482;47.014;7.652;2022-08-19T12:22:48;6.75;;;5.55;;
64950;SDS011;51482;47.014;7.652;2022-08-19T12:25:13;6.43;;;5.45;;
64950;SDS011;51482;47.014;7.652;2022-08-19T12:27:39;6.28;;;5.68;;
64950;SDS011;51482;47.014;7.652;2022-08-19T12:30:06;5.35;;;4.85;;
64950;SDS011;51482;47.014;7.652;2022-08-19T12:32:34;7.32;;;4.72;;
64950;SDS011;51482;47.014;7.652;2022-08-19T12:34:59;6.03;;;5.50;;
64950;SDS011;51482;47.014;7.652;2022-08-19T12:37:26;5.32;;;4.90;;
64950;SDS011;51482;47.014;7.652;2022-08-19T12:39:51;5.80;;;5.30;;
64950;SDS011;51482;47.014;7.652;2022-08-19T12:42:17;5.72;;;5.22;;
64950;SDS011;51482;47.014;7.652;2022-08-19T12:44:43;5.45;;;4.95;;
64950;SDS011;51482;47.014;7.652;2022-08-19T12:47:10;6.00;;;5.50;;
64950;SDS011;51482;47.014;7.652;2022-08-19T12:49:41;7.63;;;5.47;;
64950;SDS011;51482;47.014;7.652;2022-08-19T12:52:08;5.88;;;5.32;;
64950;SDS011;51482;47.014;7.652;2022-08-19T12:54:34;5.53;;;5.03;;
64950;SDS011;51482;47.014;7.652;2022-08-19T12:57:04;5.10;;;4.47;;
64950;SDS011;51482;47.014;7.652;2022-08-19T12:59:32;6.70;;;5.25;;
64950;SDS011;51482;47.014;7.652;2022-08-19T13:01:58;6.18;;;5.57;;
64950;SDS011;51482;47.014;7.652;2022-08-19T13:04:24;6.10;;;5.32;;
64950;SDS011;51482;47.014;7.652;2022-08-19T13:06:49;5.80;;;5.30;;
64950;SDS011;51482;47.014;7.652;2022-08-19T13:09:15;6.22;;;5.63;;
64950;SDS011;51482;47.014;7.652;2022-08-19T13:11:40;5.57;;;5.05;;
64950;SDS011;51482;47.014;7.652;2022-08-19T13:14:06;7.03;;;6.32;;
64950;SDS011;51482;47.014;7.652;2022-08-19T13:16:32;6.47;;;5.82;;
64950;SDS011;51482;47.014;7.652;2022-08-19T13:18:57;6.30;;;5.70;;
64950;SDS011;51482;47.014;7.652;2022-08-19T13:21:24;7.07;;;6.38;;
64950;SDS011;51482;47.014;7.652;2022-08-19T13:23:52;6.75;;;6.07;;
64950;SDS011;51482;47.014;7.652;2022-08-19T13:26:19;7.80;;;7.00;;
64950;SDS011;51482;47.014;7.652;2022-08-19T13:28:45;8.07;;;6.85;;
64950;SDS011;51482;47.014;7.652;2022-08-19T13:31:30;7.93;;;6.00;;
64950;SDS011;51482;47.014;7.652;2022-08-19T13:34:17;8.98;;;5.38;;
64950;SDS011;51482;47.014;7.652;2022-08-19T13:36:50;8.15;;;7.10;;
64950;SDS011;51482;47.014;7.652;2022-08-19T13:39:17;8.27;;;6.30;;
64950;SDS011;51482;47.014;7.652;2022-08-19T13:41:44;8.52;;;7.30;;
64950;SDS011;51482;47.014;7.652;2022-08-19T13:44:13;8.18;;;6.47;;
64950;SDS011;51482;47.014;7.652;2022-08-19T13:46:40;6.55;;;5.93;;
64950;SDS011;51482;47.014;7.652;2022-08-19T13:49:09;7.95;;;6.95;;
64950;SDS011;51482;47.014;7.652;2022-08-19T13:51:35;6.43;;;5.45;;
64950;SDS011;51482;47.014;7.652;2022-08-19T13:54:02;7.50;;;6.38;;
64950;SDS011;51482;47.014;7.652;2022-08-19T13:56:27;8.77;;;7.45;;
64950;SDS011;51482;47.014;7.652;2022-08-19T13:58:53;7.63;;;6.45;;
64950;SDS011;51482;47.014;7.652;2022-08-19T14:01:23;8.40;;;7.50;;
64950;SDS011;51482;47.014;7.652;2022-08-19T14:03:49;8.02;;;7.03;;
64950;SDS011;51482;47.014;7.652;2022-08-19T14:06:14;8.25;;;6.60;;
64950;SDS011;51482;47.014;7.652;2022-08-19T14:08:41;6.68;;;6.00;;
64950;SDS011;51482;47.014;7.652;2022-08-19T14:11:07;6.32;;;5.75;;
64950;SDS011;51482;47.014;7.652;2022-08-19T14:13:34;8.10;;;7.30;;
64950;SDS011;51482;47.014;7.652;2022-08-19T14:15:59;11.05;;;8.45;;
64950;SDS011;51482;47.014;7.652;2022-08-19T14:18:27;9.25;;;8.13;;
64950;SDS011;51482;47.014;7.652;2022-08-19T14:20:52;10.05;;;8.90;;
64950;SDS011;51482;47.014;7.652;2022-08-19T14:23:19;10.10;;;8.27;;
64950;SDS011;51482;47.014;7.652;2022-08-19T14:25:44;10.00;;;8.73;;
64950;SDS011;51482;47.014;7.652;2022-08-19T14:28:11;9.70;;;7.53;;
64950;SDS011;51482;47.014;7.652;2022-08-19T14:30:37;9.13;;;8.02;;
64950;SDS011;51482;47.014;7.652;2022-08-19T14:33:03;8.10;;;7.35;;
64950;SDS011;51482;47.014;7.652;2022-08-19T14:35:31;8.55;;;7.65;;
64950;SDS011;51482;47.014;7.652;2022-08-19T14:38:02;8.20;;;7.40;;
64950;SDS011;51482;47.014;7.652;2022-08-19T14:40:30;8.40;;;7.22;;
64950;SDS011;51482;47.014;7.652;2022-08-19T14:42:57;8.23;;;7.43;;
64950;SDS011;51482;47.014;7.652;2022-08-19T14:45:26;7.90;;;7.10;;
64950;SDS011;51482;47.014;7.652;2022-08-19T14:47:53;6.90;;;6.30;;
64950;SDS011;51482;47.014;7.652;2022-08-19T14:50:18;8.18;;;7.35;;
64950;SDS011;51482;47.014;7.652;2022-08-19T14:52:46;8.13;;;6.18;;
64950;SDS011;51482;47.014;7.652;2022-08-19T14:55:15;9.25;;;8.23;;
64950;SDS011;51482;47.014;7.652;2022-08-19T14:57:42;8.05;;;7.25;;
64950;SDS011;51482;47.014;7.652;2022-08-19T15:00:09;7.97;;;7.18;;